Time;durP1;ratioP1;P1;durP2;ratioP2;P2;SDS_P1;SDS_P2;PMS_P1;PMS_P2;Temp;Humidity;BMP_temperature;BMP_pressure;BME280_temperature;BME280_humidity;BME280_pressure;Samples;Min_cycle;Max_cycle;Signal;HPM_P1;HPM_P2
2021/01/05 00:01:47;;;;;;;46.68;22.05;;;;;;;3.43;92.46;100626.00;1656599;85;27327;-79
2021/01/05 00:04:15;;;;;;;45.00;20.95;;;;;;;3.42;92.58;100621.69;1683743;83;25805;-79
2021/01/05 00:06:42;;;;;;;33.13;13.98;;;;;;;3.41;92.67;100616.03;1611767;85;26263;-78
2021/01/05 00:09:09;;;;;;;40.55;19.82;;;;;;;3.40;92.82;100625.78;1690924;83;26150;-79
2021/01/05 00:11:58;;;;;;;41.30;20.40;;;;;;;3.40;92.76;100623.13;1693076;83;26009;-78
2021/01/05 00:14:26;;;;;;;33.05;18.17;;;;;;;3.40;92.72;100620.48;1717735;83;27552;-79
2021/01/05 00:16:54;;;;;;;37.23;18.12;;;;;;;3.38;92.91;100621.12;1651018;83;25890;-78
2021/01/05 00:19:23;;;;;;;40.80;19.45;;;;;;;3.39;93.08;100620.64;1677315;83;25840;-79
2021/01/05 00:21:52;;;;;;;41.33;19.82;;;;;;;3.38;92.98;100613.69;1661980;84;25791;-78
2021/01/05 00:24:20;;;;;;;45.08;19.95;;;;;;;3.39;92.88;100615.34;1672304;85;25786;-79
2021/01/05 00:26:48;;;;;;;46.53;21.30;;;;;;;3.39;92.85;100618.83;1612488;85;27579;-79
2021/01/05 00:29:16;;;;;;;37.35;17.75;;;;;;;3.40;92.98;100623.13;1624594;86;25757;-80
2021/01/05 00:31:43;;;;;;;42.25;20.37;;;;;;;3.43;92.88;100626.84;1637409;86;25814;-79
2021/01/05 00:34:11;;;;;;;43.05;20.37;;;;;;;3.43;92.93;100623.34;1656961;86;26096;-79
2021/01/05 00:36:38;;;;;;;38.10;19.57;;;;;;;3.43;92.89;100629.48;1612400;85;25942;-79
2021/01/05 00:39:07;;;;;;;40.55;20.37;;;;;;;3.43;93.11;100628.16;1660833;84;28518;-78
2021/01/05 00:41:35;;;;;;;41.58;20.45;;;;;;;3.44;92.88;100625.03;1664904;84;26192;-79
2021/01/05 00:44:02;;;;;;;41.90;20.90;;;;;;;3.45;92.91;100621.39;1682079;84;26108;-79
2021/01/05 00:46:30;;;;;;;42.43;20.40;;;;;;;3.44;93.26;100618.41;1606036;88;25883;-80
2021/01/05 00:48:57;;;;;;;44.75;19.75;;;;;;;3.43;93.11;100619.38;1628939;85;26513;-79
2021/01/05 00:51:25;;;;;;;43.00;22.00;;;;;;;3.45;93.18;100626.69;1663724;84;27431;-78
2021/01/05 00:53:52;;;;;;;32.90;16.42;;;;;;;3.44;93.11;100615.28;1680044;83;26037;-79
2021/01/05 00:56:19;;;;;;;43.65;20.65;;;;;;;3.45;93.32;100613.45;1618881;85;25886;-79
2021/01/05 00:58:47;;;;;;;45.45;21.50;;;;;;;3.43;93.19;100616.25;1662558;84;25812;-79
2021/01/05 01:01:15;;;;;;;42.75;21.87;;;;;;;3.44;93.11;100613.96;1652950;84;25912;-79
2021/01/05 01:03:42;;;;;;;42.45;20.35;;;;;;;3.47;93.18;100614.14;1662000;84;28321;-79
2021/01/05 01:06:10;;;;;;;41.15;20.25;;;;;;;3.47;93.18;100615.47;1633935;84;25864;-79
2021/01/05 01:08:37;;;;;;;38.98;20.05;;;;;;;3.48;93.15;100614.50;1649549;84;25922;-79
2021/01/05 01:11:05;;;;;;;31.75;16.07;;;;;;;3.48;93.23;100607.41;1660829;84;25850;-79
2021/01/05 01:13:32;;;;;;;43.08;19.50;;;;;;;3.48;93.32;100598.14;1684360;84;25903;-79
2021/01/05 01:16:00;;;;;;;45.48;21.80;;;;;;;3.48;93.30;100603.44;1638111;84;27638;-79
2021/01/05 01:18:28;;;;;;;38.48;19.92;;;;;;;3.48;93.25;100593.32;1639732;84;25953;-79
2021/01/05 01:20:55;;;;;;;44.65;21.15;;;;;;;3.49;93.23;100594.97;1661082;84;25723;-79
2021/01/05 01:23:24;;;;;;;47.70;22.45;;;;;;;3.49;93.40;100590.52;1662538;84;25955;-78
2021/01/05 01:25:53;;;;;;;38.88;18.57;;;;;;;3.49;93.18;100593.66;1627068;84;26468;-79
2021/01/05 01:28:20;;;;;;;41.83;20.62;;;;;;;3.51;93.30;100585.08;1654458;83;27656;-80
2021/01/05 01:30:49;;;;;;;41.60;19.95;;;;;;;3.52;93.25;100590.73;1698248;83;25926;-79
2021/01/05 01:33:17;;;;;;;39.25;19.55;;;;;;;3.53;93.21;100581.31;1717291;83;25833;-78
2021/01/05 01:35:45;;;;;;;35.50;16.77;;;;;;;3.53;93.26;100583.96;1675797;83;25892;-79
2021/01/05 01:38:13;;;;;;;41.37;21.12;;;;;;;3.52;93.30;100573.04;1668075;83;25514;-79
2021/01/05 01:40:51;;;;;;;41.73;18.27;;;;;;;3.56;93.28;100571.77;1799585;77;25669;-78
2021/01/05 01:43:23;;;;;;;37.10;19.23;;;;;;;3.50;93.54;100569.70;1755210;80;25836;-78
2021/01/05 01:45:52;;;;;;;42.55;19.77;;;;;;;3.50;93.51;100567.05;1778647;79;28669;-79
2021/01/05 01:48:21;;;;;;;43.35;19.55;;;;;;;3.49;93.60;100565.37;1725829;80;26459;-79
2021/01/05 01:50:52;;;;;;;42.65;21.02;;;;;;;3.49;93.42;100560.07;1698526;79;25855;-79
2021/01/05 01:53:48;;;;;;;45.55;22.07;;;;;;;3.50;93.52;100568.38;1726698;79;25883;-79
2021/01/05 01:56:43;;;;;;;39.65;20.75;;;;;;;3.50;93.44;100565.73;1704054;82;25810;-79
2021/01/05 01:59:37;;;;;;;42.98;21.27;;;;;;;3.51;93.72;100563.41;1655894;82;27622;-79
2021/01/05 02:02:09;;;;;;;;;;;;;;;3.50;93.76;100562.23;1694022;82;25868;-80
2021/01/05 02:04:46;;;;;;;44.45;21.05;;;;;;;3.51;93.76;100563.41;1691056;82;25394;-78
2021/01/05 02:07:43;;;;;;;44.20;20.75;;;;;;;3.48;93.79;100554.45;1717267;82;25790;-80
2021/01/05 02:10:39;;;;;;;43.70;19.85;;;;;;;3.50;93.89;100555.13;1712888;82;25964;-80
2021/01/05 02:13:24;;;;;;;31.68;14.58;;;;;;;3.50;93.88;100551.16;1684389;82;28506;-79
2021/01/05 02:16:04;;;;;;;44.90;20.70;;;;;;;3.52;93.93;100551.85;1705130;82;25936;-79
2021/01/05 02:18:39;;;;;;;46.88;22.52;;;;;;;3.52;93.77;100547.88;1709706;82;25951;-79
2021/01/05 02:21:36;;;;;;;42.58;19.42;;;;;;;3.54;93.72;100547.73;1693214;83;26536;-79
2021/01/05 02:24:30;;;;;;;36.80;16.57;;;;;;;3.53;94.21;100550.86;1685265;82;25780;-78
2021/01/05 02:27:06;;;;;;;43.58;22.42;;;;;;;3.52;94.01;100541.74;1716757;82;28364;-79
2021/01/05 02:29:57;;;;;;;50.23;20.15;;;;;;;3.52;93.83;100542.59;1716864;82;26098;-79
2021/01/05 02:32:31;;;;;;;44.65;20.20;;;;;;;3.55;93.79;100547.58;1674395;82;25893;-79
2021/01/05 02:35:41;;;;;;;34.67;16.73;;;;;;;3.60;93.94;100529.45;1842120;77;25756;-79
2021/01/05 02:39:05;;;;;;;40.38;18.90;;;;;;;3.57;93.91;100523.62;1803389;78;26228;-79
2021/01/05 02:42:19;;;;;;;41.33;19.10;;;;;;;3.54;93.94;100530.03;1796369;78;28358;-78
2021/01/05 02:45:28;;;;;;;42.43;20.35;;;;;;;3.54;94.09;100524.73;1783774;78;26167;-79
2021/01/05 02:49:00;;;;;;;44.85;20.15;;;;;;;3.54;94.01;100522.09;1772309;79;25828;-79
2021/01/05 02:52:20;;;;;;;32.13;15.15;;;;;;;3.54;94.27;100511.50;1781738;78;25817;-78
2021/01/05 02:55:40;;;;;;;46.85;21.23;;;;;;;3.53;94.36;100515.63;1805910;78;25711;-78
2021/01/05 02:59:16;;;;;;;32.98;13.40;;;;;;;3.52;94.33;100508.64;1791225;78;27532;-79
2021/01/05 03:02:40;;;;;;;43.13;18.00;;;;;;;3.52;94.44;100501.54;1795901;78;26454;-79
2021/01/05 03:05:25;;;;;;;43.87;19.87;;;;;;;3.51;94.75;100496.37;1797656;78;26301;-79
2021/01/05 03:08:12;;;;;;;44.50;17.90;;;;;;;3.50;94.50;100498.20;1777633;79;25761;-79
2021/01/05 03:11:06;;;;;;;46.33;25.72;;;;;;;3.56;94.70;100496.78;1810819;77;28557;-79
2021/01/05 03:14:02;;;;;;;37.48;16.37;;;;;;;3.68;94.22;100492.96;1796741;78;26365;-79
2021/01/05 03:16:56;;;;;;;28.73;13.65;;;;;;;3.63;94.21;100488.13;1775641;78;27598;-79
2021/01/05 03:19:47;;;;;;;38.30;18.45;;;;;;;3.61;94.25;100495.38;1773020;78;26183;-78
2021/01/05 03:23:02;;;;;;;43.17;19.98;;;;;;;3.65;94.35;100477.37;1840901;77;26599;-79
2021/01/05 03:25:51;;;;;;;40.10;19.52;;;;;;;3.58;94.41;100478.45;1791473;78;26265;-78
2021/01/05 03:28:37;;;;;;;42.20;18.92;;;;;;;3.57;94.47;100472.79;1740197;80;28144;-79
2021/01/05 03:31:28;;;;;;;41.37;19.20;;;;;;;3.57;94.41;100468.01;1764833;80;25740;-79
2021/01/05 03:34:15;;;;;;;41.68;16.95;;;;;;;3.57;94.56;100470.66;1736187;80;26097;-79
2021/01/05 03:37:00;;;;;;;36.68;18.07;;;;;;;3.57;94.51;100468.01;1763565;80;25969;-79
2021/01/05 03:39:46;;;;;;;43.45;18.20;;;;;;;3.57;94.50;100461.39;1708699;81;25854;-79
2021/01/05 03:42:31;;;;;;;40.85;17.07;;;;;;;3.56;94.49;100458.38;1693818;83;27664;-79
2021/01/05 03:45:25;;;;;;;39.10;18.75;;;;;;;3.58;94.53;100458.58;1686106;82;25927;-80
2021/01/05 03:48:11;;;;;;;36.55;17.30;;;;;;;3.58;94.66;100449.80;1731025;81;25817;-79
2021/01/05 03:50:57;;;;;;;45.80;24.30;;;;;;;3.63;94.54;100449.72;1817695;77;33497;-79
2021/01/05 03:53:43;;;;;;;47.00;19.20;;;;;;;3.77;93.88;100440.44;1790073;79;26142;-79
2021/01/05 03:56:29;;;;;;;35.15;17.55;;;;;;;3.71;94.17;100439.22;1783999;78;27582;-79
2021/01/05 03:59:15;;;;;;;35.78;17.52;;;;;;;3.68;94.30;100447.45;1745592;79;26113;-80
2021/01/05 04:02:04;;;;;;;35.10;15.72;;;;;;;3.72;94.28;100442.72;1837993;77;25779;-78
2021/01/05 04:04:31;;;;;;;40.83;17.52;;;;;;;3.68;94.40;100441.31;1795919;78;25704;-79
2021/01/05 04:06:58;;;;;;;38.53;18.95;;;;;;;3.66;94.51;100437.50;1740363;79;27638;-79
2021/01/05 04:09:26;;;;;;;30.82;14.38;;;;;;;3.63;94.54;100432.51;1737068;79;26135;-79
2021/01/05 04:11:53;;;;;;;36.45;16.48;;;;;;;3.63;94.77;100439.12;1760448;79;25860;-79
2021/01/05 04:14:20;;;;;;;30.25;14.63;;;;;;;3.63;94.59;100435.16;1778212;79;25901;-79
2021/01/05 04:16:48;;;;;;;35.05;16.67;;;;;;;3.66;94.67;100437.98;1733895;79;25654;-78
2021/01/05 04:19:15;;;;;;;30.10;15.23;;;;;;;3.65;94.55;100436.33;1735837;79;28390;-79
2021/01/05 04:21:43;;;;;;;35.15;15.50;;;;;;;3.65;94.63;100440.30;1762524;79;26621;-79
2021/01/05 04:24:10;;;;;;;30.45;16.32;;;;;;;3.65;94.59;100446.92;1779228;79;25860;-79
2021/01/05 04:26:37;;;;;;;32.05;14.93;;;;;;;3.65;94.66;100429.70;1711678;79;26079;-79
2021/01/05 04:29:05;;;;;;;27.02;14.35;;;;;;;3.67;94.57;100436.53;1737568;79;26117;-79
2021/01/05 04:31:40;;;;;;;28.35;13.68;;;;;;;3.68;94.57;100438.66;1734405;79;27335;-79
2021/01/05 04:34:08;;;;;;;26.10;13.05;;;;;;;3.68;94.73;100433.36;1777289;79;25769;-79
2021/01/05 04:36:36;;;;;;;29.35;14.18;;;;;;;3.69;94.56;100435.89;1722727;79;25474;-79
2021/01/05 04:39:05;;;;;;;24.45;13.38;;;;;;;3.69;94.57;100429.75;1758868;79;25695;-79
2021/01/05 04:41:43;;;;;;;23.45;12.37;;;;;;;3.70;94.49;100429.59;1765656;79;25931;-79
2021/01/05 04:44:14;;;;;;;22.20;12.55;;;;;;;3.70;94.70;100430.11;1771453;79;27524;-79
2021/01/05 04:46:56;;;;;;;25.30;13.38;;;;;;;3.71;94.46;100429.95;1735914;79;26455;-79
2021/01/05 04:49:31;;;;;;;21.57;11.95;;;;;;;3.73;94.45;100435.94;1751137;79;25767;-79
2021/01/05 04:52:16;;;;;;;23.62;12.00;;;;;;;3.73;94.51;100431.97;1771765;79;26232;-79
2021/01/05 04:54:54;;;;;;;18.50;9.35;;;;;;;3.74;94.40;100435.45;1776445;79;25757;-79
2021/01/05 04:57:26;;;;;;;18.60;10.23;;;;;;;3.74;94.44;100431.48;1772980;79;27526;-79
2021/01/05 05:00:17;;;;;;;14.60;8.60;;;;;;;3.75;94.43;100430.48;1762223;79;25793;-79
2021/01/05 05:02:53;;;;;;;21.37;11.28;;;;;;;3.76;94.34;100434.30;1769207;79;25824;-79
2021/01/05 05:05:45;;;;;;;16.48;8.80;;;;;;;3.77;94.33;100429.84;1775963;79;25764;-79
2021/01/05 05:08:30;;;;;;;19.32;10.15;;;;;;;3.78;94.28;100428.88;1761079;79;25761;-79
2021/01/05 05:11:09;;;;;;;18.80;10.63;;;;;;;3.78;94.20;100419.12;1767608;79;27777;-79
2021/01/05 05:13:59;;;;;;;21.15;10.60;;;;;;;3.79;94.22;100420.77;1771666;79;26058;-79
2021/01/05 05:16:51;;;;;;;16.87;8.95;;;;;;;3.76;94.17;100415.75;1782884;78;25414;-79
2021/01/05 05:20:04;;;;;;;18.52;9.68;;;;;;;3.76;94.28;100421.05;1764804;79;26174;-79
2021/01/05 05:22:45;;;;;;;18.70;10.13;;;;;;;3.77;94.23;100420.57;1775828;79;25444;-79
2021/01/05 05:25:18;;;;;;;;;;;;;;;3.76;94.12;100414.43;1748879;79;27508;-79
2021/01/05 05:28:00;;;;;;;17.48;10.03;;;;;;;3.78;94.08;100418.28;1764035;79;25770;-79
2021/01/05 05:30:38;;;;;;;17.73;10.35;;;;;;;3.76;94.13;100417.08;1778822;79;26308;-80
2021/01/05 05:33:28;;;;;;;21.42;10.88;;;;;;;3.76;94.08;100408.32;1763392;79;26104;-79
2021/01/05 05:36:01;;;;;;;18.12;10.28;;;;;;;3.76;94.03;100411.78;1725364;79;25889;-80
2021/01/05 05:38:42;;;;;;;15.20;8.75;;;;;;;3.75;94.11;100408.80;1764095;79;26759;-80
2021/01/05 05:41:30;;;;;;;18.25;11.33;;;;;;;3.74;94.08;100399.17;1774531;79;26026;-80
2021/01/05 05:44:26;;;;;;;12.00;7.15;;;;;;;3.74;94.01;100395.20;1793507;79;25806;-79
2021/01/05 05:47:10;;;;;;;18.30;9.95;;;;;;;3.75;94.07;100395.56;1788392;79;25789;-80
2021/01/05 05:50:03;;;;;;;16.60;10.18;;;;;;;3.74;94.10;100398.37;1763501;79;26330;-80
2021/01/05 05:52:39;;;;;;;15.43;8.58;;;;;;;3.74;94.03;100393.88;1782946;79;27532;-80
2021/01/05 05:55:26;;;;;;;15.70;8.13;;;;;;;3.74;94.00;100393.07;1763156;79;26601;-80
2021/01/05 05:57:57;;;;;;;14.65;7.62;;;;;;;3.75;94.04;100392.91;1796767;79;25852;-80
2021/01/05 06:00:39;;;;;;;14.40;7.72;;;;;;;3.75;94.02;100389.42;1733313;79;25375;-80
2021/01/05 06:03:10;;;;;;;12.80;7.53;;;;;;;3.75;93.97;100386.29;1765078;80;25417;-81
2021/01/05 06:05:38;;;;;;;12.35;6.85;;;;;;;3.76;93.94;100381.83;1752906;80;28481;-80
2021/01/05 06:08:08;;;;;;;13.20;8.75;;;;;;;3.75;93.95;100379.67;1753807;80;25906;-80
2021/01/05 06:10:36;;;;;;;15.07;8.33;;;;;;;3.76;93.83;100376.53;1752447;80;25843;-80
2021/01/05 06:13:03;;;;;;;13.50;6.47;;;;;;;3.75;93.87;100374.37;1782713;79;25709;-80
2021/01/05 06:15:33;;;;;;;16.67;8.85;;;;;;;3.76;93.90;100370.72;1732401;80;25891;-80
2021/01/05 06:18:03;;;;;;;11.08;6.58;;;;;;;3.76;93.80;100362.77;1778896;79;28271;-80
2021/01/05 06:20:30;;;;;;;12.80;7.57;;;;;;;3.76;93.81;100362.77;1708672;80;26237;-80
2021/01/05 06:22:58;;;;;;;11.85;7.00;;;;;;;3.76;93.78;100363.29;1752442;80;26490;-80
2021/01/05 06:25:26;;;;;;;10.18;6.37;;;;;;;3.77;93.76;100361.80;1756158;80;25431;-80
2021/01/05 06:27:53;;;;;;;11.10;6.42;;;;;;;3.76;93.78;100357.99;1756698;80;25923;-80
2021/01/05 06:30:21;;;;;;;12.45;7.58;;;;;;;3.76;93.77;100353.50;1753424;79;27530;-80
2021/01/05 06:32:49;;;;;;;13.13;7.25;;;;;;;3.78;93.71;100361.33;1749155;80;25879;-80
2021/01/05 06:35:20;;;;;;;11.45;7.37;;;;;;;3.78;93.70;100362.16;1752057;80;25377;-80
2021/01/05 06:37:51;;;;;;;13.80;8.00;;;;;;;3.78;93.66;100359.52;1729576;80;25600;-80
2021/01/05 06:40:25;;;;;;;14.35;7.03;;;;;;;3.77;93.78;100353.86;1759062;80;25696;-80
2021/01/05 06:42:54;;;;;;;11.30;7.08;;;;;;;3.79;93.66;100353.70;1746113;81;27593;-80
2021/01/05 06:45:29;;;;;;;7.92;5.60;;;;;;;3.78;93.64;100347.59;1745603;80;26338;-80
2021/01/05 06:47:58;;;;;;;10.13;6.10;;;;;;;3.76;93.66;100354.83;1782078;79;25905;-80
2021/01/05 06:50:28;;;;;;;10.98;6.12;;;;;;;3.75;93.62;100351.02;1663113;83;25523;-80
2021/01/05 06:52:56;;;;;;;11.60;5.95;;;;;;;3.75;93.68;100347.04;1730245;82;25395;-80
2021/01/05 06:55:23;;;;;;;10.88;6.35;;;;;;;3.74;93.62;100354.14;1697670;82;28439;-80
2021/01/05 06:57:51;;;;;;;11.60;7.00;;;;;;;3.74;93.66;100346.20;1707470;82;25817;-80
2021/01/05 07:00:23;;;;;;;10.18;6.03;;;;;;;3.75;93.61;100350.53;1705506;82;25792;-80
2021/01/05 07:02:52;;;;;;;10.00;5.55;;;;;;;3.76;93.55;100352.70;1714036;81;25856;-80
2021/01/05 07:05:20;;;;;;;8.68;5.62;;;;;;;3.77;93.55;100343.27;1701753;82;26318;-80
2021/01/05 07:07:48;;;;;;;10.05;5.85;;;;;;;3.76;93.50;100343.42;1662032;82;28293;-79
2021/01/05 07:10:18;;;;;;;9.18;5.72;;;;;;;3.77;93.48;100345.07;1686866;82;25800;-80
2021/01/05 07:12:48;;;;;;;7.70;4.93;;;;;;;3.76;93.52;100340.77;1672638;81;25780;-79
2021/01/05 07:15:18;;;;;;;9.23;5.65;;;;;;;3.77;93.44;100337.97;1735184;81;25732;-81
2021/01/05 07:17:47;;;;;;;7.00;4.55;;;;;;;3.76;93.43;100331.50;1721508;81;25923;-80
2021/01/05 07:20:15;;;;;;;9.40;5.78;;;;;;;3.75;93.44;100327.17;1693143;81;27617;-80
2021/01/05 07:22:43;;;;;;;8.43;5.25;;;;;;;3.73;93.40;100323.36;1707771;81;26245;-79
2021/01/05 07:25:14;;;;;;;7.62;5.25;;;;;;;3.74;93.32;100328.17;1685043;81;25402;-80
2021/01/05 07:27:41;;;;;;;6.22;3.98;;;;;;;3.72;93.38;100324.33;1702553;81;26554;-80
2021/01/05 07:30:11;;;;;;;8.10;4.87;;;;;;;3.72;93.39;100326.97;1692375;81;26683;-80
2021/01/05 07:32:39;;;;;;;7.05;4.70;;;;;;;3.71;93.38;100319.19;1680147;81;27733;-80
2021/01/05 07:35:09;;;;;;;6.00;3.52;;;;;;;3.70;93.36;100315.70;1671921;82;26079;-80
2021/01/05 07:37:39;;;;;;;;;;;;;;;3.70;93.34;100316.22;1705501;82;25955;-80
2021/01/05 07:40:09;;;;;;;7.65;4.12;;;;;;;3.68;93.32;100311.05;1717390;81;26488;-80
2021/01/05 07:42:37;;;;;;;5.60;3.87;;;;;;;3.66;93.40;100320.11;1691677;81;25987;-80
2021/01/05 07:45:09;;;;;;;4.67;3.42;;;;;;;3.67;93.39;100320.47;1712375;82;28653;-79
2021/01/05 07:47:38;;;;;;;8.40;4.00;;;;;;;3.65;93.25;100315.33;1712176;81;25988;-80
2021/01/05 07:50:12;;;;;;;6.90;3.95;;;;;;;3.66;93.25;100312.17;1720955;81;26148;-80
2021/01/05 07:52:41;;;;;;;6.20;4.05;;;;;;;3.65;93.22;100310.52;1712845;81;26467;-80
2021/01/05 07:55:25;;;;;;;6.87;4.10;;;;;;;3.64;93.20;100309.68;1737644;81;25827;-80
2021/01/05 07:57:55;;;;;;;5.15;3.83;;;;;;;3.64;93.02;100311.48;1704880;81;27536;-80
2021/01/05 08:00:26;;;;;;;6.40;3.52;;;;;;;3.63;92.88;100304.55;1726607;81;25350;-80
2021/01/05 08:02:56;;;;;;;5.12;3.45;;;;;;;3.61;92.81;100304.70;1699387;82;25837;-80
2021/01/05 08:05:27;;;;;;;6.85;3.58;;;;;;;3.60;92.88;100306.98;1720725;82;25570;-80
2021/01/05 08:07:57;;;;;;;4.40;3.17;;;;;;;3.58;92.80;100308.95;1696245;83;26002;-80
2021/01/05 08:10:32;;;;;;;3.52;3.00;;;;;;;3.57;92.79;100304.63;1703941;82;27605;-80
2021/01/05 08:13:05;;;;;;;4.72;2.90;;;;;;;3.57;92.89;100307.80;1701606;82;25857;-80
2021/01/05 08:15:35;;;;;;;3.90;3.35;;;;;;;3.57;92.80;100299.33;1728880;82;25911;-80
2021/01/05 08:18:07;;;;;;;4.75;2.72;;;;;;;3.56;92.74;100295.03;1661484;84;26572;-80
2021/01/05 08:20:35;;;;;;;3.45;2.67;;;;;;;3.54;92.57;100289.06;1698215;82;26164;-80
2021/01/05 08:23:04;;;;;;;5.33;2.47;;;;;;;3.53;92.60;100288.70;1711760;82;27326;-79
2021/01/05 08:25:32;;;;;;;3.17;2.27;;;;;;;3.51;92.58;100291.15;1745400;81;25886;-80
2021/01/05 08:28:01;;;;;;;3.10;1.92;;;;;;;3.50;92.46;100278.91;1676952;81;25781;-80
2021/01/05 08:30:34;;;;;;;2.40;1.85;;;;;;;3.49;92.45;100280.72;1710643;81;25757;-79
2021/01/05 08:33:07;;;;;;;2.80;1.98;;;;;;;3.48;92.58;100280.39;1721654;81;26443;-85
2021/01/05 08:35:37;;;;;;;6.08;2.40;;;;;;;3.47;92.40;100280.52;1736630;80;27538;-89
2021/01/05 08:38:05;;;;;;;2.62;1.85;;;;;;;3.46;92.44;100273.57;1699171;81;25762;-78
2021/01/05 08:40:35;;;;;;;3.25;1.72;;;;;;;3.45;92.41;100263.47;1703643;83;25838;-79
2021/01/05 08:43:08;;;;;;;3.95;2.47;;;;;;;3.43;92.41;100268.08;1665333;84;26245;-78
2021/01/05 08:45:40;;;;;;;3.70;2.17;;;;;;;3.41;92.45;100269.20;1686979;83;26429;-78
2021/01/05 08:48:09;;;;;;;2.67;1.75;;;;;;;3.39;92.44;100257.94;1644552;84;28484;-78
2021/01/05 08:50:39;;;;;;;2.70;1.92;;;;;;;3.38;92.58;100254.96;1674479;83;25980;-78
2021/01/05 08:53:10;;;;;;;4.90;3.55;;;;;;;3.38;92.61;100258.94;1718499;82;26402;-78
2021/01/05 08:55:40;;;;;;;2.90;2.05;;;;;;;3.39;92.60;100256.12;1648192;84;26502;-78
2021/01/05 08:58:09;;;;;;;4.20;2.40;;;;;;;3.38;92.61;100246.50;1701748;82;25804;-78
2021/01/05 09:00:37;;;;;;;2.45;2.10;;;;;;;3.39;92.69;100251.31;1646814;84;28067;-78
2021/01/05 09:03:06;;;;;;;3.12;2.37;;;;;;;3.39;92.72;100249.51;1689890;82;26178;-78
2021/01/05 09:05:33;;;;;;;4.25;2.27;;;;;;;3.39;92.72;100246.02;1715067;82;26127;-79
2021/01/05 09:08:02;;;;;;;3.35;2.12;;;;;;;3.42;92.78;100247.87;1684241;82;26439;-79
2021/01/05 09:10:32;;;;;;;;;;;;;;;3.44;92.69;100241.13;1696467;83;26144;-78
2021/01/05 09:13:00;;;;;;;2.60;2.10;;;;;;;3.44;92.71;100239.80;1676529;82;28288;-79
2021/01/05 09:15:27;;;;;;;3.47;1.90;;;;;;;3.42;92.76;100239.12;1704348;82;26171;-79
2021/01/05 09:17:55;;;;;;;2.75;2.30;;;;;;;3.43;92.84;100236.80;1663009;82;25419;-79
2021/01/05 09:20:25;;;;;;;3.30;2.17;;;;;;;3.44;92.87;100235.83;1702989;82;26239;-79
2021/01/05 09:22:55;;;;;;;2.67;2.07;;;;;;;3.43;92.82;100231.02;1705474;82;25935;-79
2021/01/05 09:25:23;;;;;;;2.50;1.77;;;;;;;3.45;92.80;100223.75;1734926;81;27605;-79
2021/01/05 09:27:52;;;;;;;4.12;2.15;;;;;;;3.46;92.73;100229.89;1696839;82;26323;-79
2021/01/05 09:30:22;;;;;;;3.02;1.77;;;;;;;3.46;92.70;100222.78;1714086;82;26093;-79
2021/01/05 09:32:50;;;;;;;3.27;1.80;;;;;;;3.44;92.69;100218.13;1707275;82;25856;-79
2021/01/05 09:35:18;;;;;;;2.50;1.62;;;;;;;3.43;92.52;100216.45;1710243;81;26149;-79
2021/01/05 09:37:49;;;;;;;2.05;1.35;;;;;;;3.44;92.61;100228.73;1667163;82;28496;-78
2021/01/05 09:40:19;;;;;;;1.67;1.32;;;;;;;3.41;92.13;100217.58;1710763;82;26552;-79
2021/01/05 09:42:46;;;;;;;1.17;0.93;;;;;;;3.38;91.85;100229.81;1709013;82;25874;-79
2021/01/05 09:45:15;;;;;;;1.98;1.47;;;;;;;3.35;91.68;100208.92;1710529;82;25767;-79
2021/01/05 09:47:43;;;;;;;1.55;1.35;;;;;;;3.31;91.84;100202.27;1710588;82;25871;-79
2021/01/05 09:50:12;;;;;;;1.80;1.20;;;;;;;3.30;91.95;100197.94;1705875;83;28365;-79
2021/01/05 09:52:39;;;;;;;1.25;1.12;;;;;;;3.28;92.04;100194.13;1709597;82;26353;-79
2021/01/05 09:55:08;;;;;;;3.30;1.70;;;;;;;3.29;92.09;100194.48;1706449;81;25379;-79
2021/01/05 09:57:37;;;;;;;;;;;;;;;3.29;92.04;100197.61;1709092;82;25867;-78
2021/01/05 10:00:08;;;;;;;1.40;1.00;;;;;;;3.25;91.61;100193.09;1700088;82;25463;-79
2021/01/05 10:02:36;;;;;;;1.35;0.95;;;;;;;3.19;91.36;100191.56;1707195;81;27537;-79
2021/01/05 10:05:05;;;;;;;1.00;0.90;;;;;;;3.13;91.18;100189.01;1688465;81;25892;-79
2021/01/05 10:07:32;;;;;;;0.90;0.80;;;;;;;3.07;90.94;100191.77;1713458;81;26824;-79
2021/01/05 10:10:00;;;;;;;0.80;0.70;;;;;;;3.02;91.16;100176.82;1710021;81;25920;-79
2021/01/05 10:12:27;;;;;;;1.60;1.00;;;;;;;3.01;91.27;100186.23;1720888;81;26728;-79
2021/01/05 10:14:55;;;;;;;1.30;1.00;;;;;;;2.98;91.42;100182.07;1673946;81;28534;-79
2021/01/05 10:17:22;;;;;;;1.95;1.00;;;;;;;2.98;91.61;100171.48;1699516;81;25888;-78
2021/01/05 10:19:50;;;;;;;1.37;0.80;;;;;;;2.98;91.60;100171.48;1748421;81;25764;-79
2021/01/05 10:22:18;;;;;;;1.07;0.80;;;;;;;2.98;91.71;100168.84;1748746;81;26500;-79
2021/01/05 10:24:45;;;;;;;2.58;1.30;;;;;;;2.99;91.71;100162.55;1689159;81;25866;-79
2021/01/05 10:27:13;;;;;;;1.10;1.00;;;;;;;2.97;91.54;100156.58;1701457;81;27546;-79
2021/01/05 10:29:40;;;;;;;1.60;1.10;;;;;;;2.93;91.13;100168.45;1719369;82;25901;-80
2021/01/05 10:32:08;;;;;;;0.75;0.60;;;;;;;2.86;91.20;100165.23;1750441;81;25940;-80
2021/01/05 10:34:36;;;;;;;0.75;0.68;;;;;;;2.80;90.78;100148.64;1729246;81;25846;-80
2021/01/05 10:37:05;;;;;;;1.62;0.98;;;;;;;2.74;90.88;100150.05;1716658;81;25585;-80
2021/01/05 10:39:32;;;;;;;0.70;0.50;;;;;;;2.67;90.88;100152.12;1702812;82;26517;-80
2021/01/05 10:42:04;;;;;;;1.00;0.90;;;;;;;2.63;90.79;100137.53;1744074;81;25855;-80
2021/01/05 10:44:31;;;;;;;;;;;;;;;2.58;91.06;100138.45;1698132;81;25916;-80
2021/01/05 10:47:01;;;;;;;0.60;0.60;;;;;;;2.54;91.28;100144.53;1722088;81;26455;-80
2021/01/05 10:49:30;;;;;;;0.80;0.70;;;;;;;2.52;91.20;100146.97;1729411;81;25843;-80
2021/01/05 10:52:01;;;;;;;1.77;0.82;;;;;;;2.46;91.20;100136.48;1707986;81;27629;-80
2021/01/05 10:54:30;;;;;;;2.02;0.50;;;;;;;2.45;91.15;100128.70;1701220;81;25788;-82
2021/01/05 10:57:03;;;;;;;0.70;0.70;;;;;;;2.43;91.06;100121.41;1700573;81;26437;-80
2021/01/05 10:59:32;;;;;;;1.10;0.60;;;;;;;2.41;90.94;100130.82;1701577;81;25911;-80
2021/01/05 11:02:03;;;;;;;0.88;0.62;;;;;;;2.40;91.25;100118.56;1713245;82;25843;-80
2021/01/05 11:04:32;;;;;;;0.98;0.50;;;;;;;2.37;91.17;100113.59;1755612;80;26128;-80
2021/01/05 11:07:13;;;;;;;1.05;0.70;;;;;;;2.34;90.94;100114.70;1756942;80;26170;-79
2021/01/05 11:09:42;;;;;;;2.47;0.60;;;;;;;2.30;91.09;100114.66;1754317;80;25823;-79
2021/01/05 11:12:13;;;;;;;0.80;0.60;;;;;;;2.24;91.05;100109.13;1746567;80;25912;-79
2021/01/05 11:14:42;;;;;;;0.75;0.65;;;;;;;2.19;91.03;100099.47;1769423;79;26138;-78
2021/01/05 11:17:09;;;;;;;0.93;0.70;;;;;;;2.16;90.96;100090.02;1746263;80;26256;-78
2021/01/05 11:19:40;;;;;;;1.07;0.57;;;;;;;2.14;91.08;100085.86;1730651;80;26305;-78
2021/01/05 11:22:15;;;;;;;1.07;0.65;;;;;;;2.10;91.03;100091.09;1754886;80;32796;-79
2021/01/05 11:24:44;;;;;;;0.57;0.45;;;;;;;2.06;90.96;100091.04;1754917;80;26563;-78
2021/01/05 11:27:15;;;;;;;0.40;0.40;;;;;;;2.01;90.91;100090.66;1726245;80;26618;-80
2021/01/05 11:29:45;;;;;;;1.77;0.80;;;;;;;1.97;90.80;100089.26;1731191;80;27303;-79
2021/01/05 11:32:17;;;;;;;1.30;0.60;;;;;;;1.95;90.89;100088.57;1752016;80;25816;-79
2021/01/05 11:34:45;;;;;;;0.75;0.60;;;;;;;1.94;91.00;100081.64;1746624;80;25773;-80
2021/01/05 11:37:17;;;;;;;0.62;0.60;;;;;;;1.89;90.93;100064.91;1748376;80;25779;-80
2021/01/05 11:39:47;;;;;;;2.15;1.07;;;;;;;1.87;91.00;100066.02;1759189;80;25910;-79
2021/01/05 11:42:22;;;;;;;2.60;1.13;;;;;;;1.83;90.99;100061.52;1758613;80;27526;-80
2021/01/05 11:44:50;;;;;;;2.05;1.12;;;;;;;1.81;91.00;100059.52;1764362;80;26169;-80
2021/01/05 11:47:21;;;;;;;1.00;0.90;;;;;;;1.76;90.94;100059.11;1766291;79;25841;-80
2021/01/05 11:49:49;;;;;;;;;;;;;;;1.75;91.03;100060.58;1757995;80;26480;-79
2021/01/05 11:52:17;;;;;;;1.15;0.72;;;;;;;1.72;90.95;100052.45;1753368;80;25714;-80
2021/01/05 11:54:45;;;;;;;1.82;1.35;;;;;;;1.69;91.07;100057.20;1758094;80;27079;-79
2021/01/05 11:57:12;;;;;;;1.55;1.10;;;;;;;1.64;91.01;100052.34;1763160;80;26186;-79
2021/01/05 11:59:40;;;;;;;1.92;1.05;;;;;;;1.65;91.25;100040.80;1730014;81;25370;-79
2021/01/05 12:02:08;;;;;;;1.67;1.15;;;;;;;1.66;91.34;100045.11;1718778;79;26580;-79